Able — 3FHH2 — position and weather

sailwx.info

Track history (hours):
 
Tides and Currents Weather Stations Pressure Air Temp Water Temp Dewpoint Dewpoint Depression Visibility Wind Speed Wind Dir Waves Ship Positions

Able

Last reported at 2017-Oct-18 14:00 UTC. Time now 2017-Oct-19 05:44 UTC.
Position N 46°33' E 032°16'.

Length 114 m; draft 4 m.

Type: Cargo ship. MMSI: 374712000.

Date/timePositionNaut miles runAvg speedWind from/ knotsBaromVisibWave heightAir tempDewpointWater temp
2017-Oct-18 14:00N 46°33' E 032°16'5 9.8
2017-Oct-18 13:28N 46°32' E 032°08'2 4.1
2017-Oct-18 13:00N 46°32' E 032°06'0 0.1
2017-Oct-18 12:30N 46°32' E 032°06'0 0.0
2017-Oct-18 12:00N 46°32' E 032°06'0 0.0
2017-Oct-18 09:24N 46°32' E 032°06'0 0.0
2017-Oct-18 09:00N 46°32' E 032°06'0 0.0
2017-Oct-18 08:30N 46°32' E 032°06'0 0.0
2017-Oct-18 08:00N 46°32' E 032°06'5 6.7
2017-Oct-18 07:19N 46°33' E 031°59'310.0
2017-Oct-18 07:00N 46°34' E 031°55'510.2
2017-Oct-18 06:30N 46°36' E 031°48'510.2
2017-Oct-18 06:00N 46°36' E 031°40'510.3
2017-Oct-18 05:30N 46°35' E 031°33'4 7.1
2017-Oct-18 05:00N 46°36' E 031°28'6 8.5
2017-Oct-18 04:20N 46°35' E 031°20'14 8.8
2017-Oct-18 02:44N 46°33' E 030°60'2 5.5
2017-Oct-18 02:23N 46°31' E 030°58'4 8.9
2017-Oct-18 01:58N 46°28' E 030°57'3 6.4
2017-Oct-18 01:28N 46°25' E 030°57'4 6.4
2017-Oct-18 00:52N 46°21' E 030°59'  
2017-Oct-15 06:19N 43°09' E 029°55'136 9.2
2017-Oct-14 15:34N 40°59' E 028°60'1 8.4
2017-Oct-14 15:30N 40°59' E 028°59'4 5.6
2017-Oct-14 14:52N 40°56' E 028°57'  
2017-Oct-12 04:34N 37°51' E 025°41'1 8.3
2017-Oct-12 04:29N 37°50' E 025°41'4 8.5
2017-Oct-12 04:00N 37°46' E 025°43'4 8.4
2017-Oct-12 03:30N 37°42' E 025°45'4 8.0
2017-Oct-12 02:58N 37°38' E 025°47'4 7.7
2017-Oct-12 02:25N 37°35' E 025°50'3 7.4
2017-Oct-12 02:00N 37°32' E 025°51'3 6.9
2017-Oct-12 01:30N 37°29' E 025°53'3 6.7
2017-Oct-12 01:00N 37°26' E 025°55'  
2017-Oct-08 23:02N 32°52' E 034°57'0 9.0
2017-Oct-08 23:00N 32°52' E 034°57'  
Track history (hours):
 
Tides and Currents Weather Stations Pressure Air Temp Water Temp Dewpoint Dewpoint Depression Visibility Wind Speed Wind Dir Waves Ship Positions

Able

Last reported at 2017-Oct-18 14:00 UTC. Time now 2017-Oct-19 05:44 UTC.
Position N 46°33' E 032°16'.

Length 114 m; draft 4 m.

Type: Cargo ship. MMSI: 374712000.

Date/timePositionNaut miles runAvg speedWind from/ knotsBaromVisibWave heightAir tempDewpointWater temp
2017-Oct-18 14:00N 46°33' E 032°16'5 9.8
2017-Oct-18 13:28N 46°32' E 032°08'2 4.1
2017-Oct-18 13:00N 46°32' E 032°06'0 0.1
2017-Oct-18 12:30N 46°32' E 032°06'0 0.0
2017-Oct-18 12:00N 46°32' E 032°06'0 0.0
2017-Oct-18 09:24N 46°32' E 032°06'0 0.0
2017-Oct-18 09:00N 46°32' E 032°06'0 0.0
2017-Oct-18 08:30N 46°32' E 032°06'0 0.0
2017-Oct-18 08:00N 46°32' E 032°06'5 6.7
2017-Oct-18 07:19N 46°33' E 031°59'310.0
2017-Oct-18 07:00N 46°34' E 031°55'510.2
2017-Oct-18 06:30N 46°36' E 031°48'510.2
2017-Oct-18 06:00N 46°36' E 031°40'510.3
2017-Oct-18 05:30N 46°35' E 031°33'4 7.1
2017-Oct-18 05:00N 46°36' E 031°28'6 8.5
2017-Oct-18 04:20N 46°35' E 031°20'14 8.8
2017-Oct-18 02:44N 46°33' E 030°60'2 5.5
2017-Oct-18 02:23N 46°31' E 030°58'4 8.9
2017-Oct-18 01:58N 46°28' E 030°57'3 6.4
2017-Oct-18 01:28N 46°25' E 030°57'4 6.4
2017-Oct-18 00:52N 46°21' E 030°59'  
2017-Oct-15 06:19N 43°09' E 029°55'136 9.2
2017-Oct-14 15:34N 40°59' E 028°60'1 8.4
2017-Oct-14 15:30N 40°59' E 028°59'4 5.6
2017-Oct-14 14:52N 40°56' E 028°57'  
2017-Oct-12 04:34N 37°51' E 025°41'1 8.3
2017-Oct-12 04:29N 37°50' E 025°41'4 8.5
2017-Oct-12 04:00N 37°46' E 025°43'4 8.4
2017-Oct-12 03:30N 37°42' E 025°45'4 8.0
2017-Oct-12 02:58N 37°38' E 025°47'4 7.7
2017-Oct-12 02:25N 37°35' E 025°50'3 7.4
2017-Oct-12 02:00N 37°32' E 025°51'3 6.9
2017-Oct-12 01:30N 37°29' E 025°53'3 6.7
2017-Oct-12 01:00N 37°26' E 025°55'  
2017-Oct-08 23:02N 32°52' E 034°57'0 9.0
2017-Oct-08 23:00N 32°52' E 034°57'  

Dump ship's entire track history